Terminal Aerodrome Forecast
Issued by NWS Sioux Falls, SD

Home | Current Version | Previous Version | Text Only | Print | Product List | Glossary Off
Versions: 1 2 3 4 5 6 7 8 9 10 11 12 13 14

000
FTUS43 KFSD 211720
TAFSUX
TAF
KSUX 211720Z 2118/2218 24005KT P6SM SKC
     FM212300 17005KT P6SM SKC
     FM220600 15008KT P6SM SKC WS015/20040KT
     FM221400 17013G19KT P6SM SKC
     FM221600 18016G24KT P6SM SKC=

USA.gov is the U.S. government's official web portal to all federal, state and local government web resources and services.